sensor_id;sensor_type;location;lat;lon;timestamp;P1;durP1;ratioP1;P2;durP2;ratioP2
38166;SDS011;23980;51.902;12.832;2022-08-19T00:02:30;21.10;;;18.25;;
38166;SDS011;23980;51.902;12.832;2022-08-19T00:07:31;22.80;;;18.08;;
38166;SDS011;23980;51.902;12.832;2022-08-19T00:12:32;21.17;;;17.83;;
38166;SDS011;23980;51.902;12.832;2022-08-19T00:17:33;20.25;;;17.55;;
38166;SDS011;23980;51.902;12.832;2022-08-19T00:22:36;22.52;;;16.52;;
38166;SDS011;23980;51.902;12.832;2022-08-19T00:27:38;23.27;;;18.00;;
38166;SDS011;23980;51.902;12.832;2022-08-19T00:32:39;21.08;;;17.10;;
38166;SDS011;23980;51.902;12.832;2022-08-19T00:37:39;18.15;;;14.88;;
38166;SDS011;23980;51.902;12.832;2022-08-19T00:42:43;22.92;;;14.43;;
38166;SDS011;23980;51.902;12.832;2022-08-19T00:47:44;16.77;;;13.52;;
38166;SDS011;23980;51.902;12.832;2022-08-19T00:52:47;20.90;;;15.45;;
38166;SDS011;23980;51.902;12.832;2022-08-19T00:57:55;19.52;;;13.55;;
38166;SDS011;23980;51.902;12.832;2022-08-19T01:03:00;18.23;;;13.80;;
38166;SDS011;23980;51.902;12.832;2022-08-19T01:08:02;18.58;;;13.77;;
38166;SDS011;23980;51.902;12.832;2022-08-19T01:13:21;19.05;;;14.88;;
38166;SDS011;23980;51.902;12.832;2022-08-19T01:18:27;22.00;;;15.13;;
38166;SDS011;23980;51.902;12.832;2022-08-19T01:23:29;12.73;;;10.52;;
38166;SDS011;23980;51.902;12.832;2022-08-19T01:28:45;17.23;;;10.25;;
38166;SDS011;23980;51.902;12.832;2022-08-19T01:33:48;18.52;;;7.90;;
38166;SDS011;23980;51.902;12.832;2022-08-19T01:38:49;16.50;;;8.93;;
38166;SDS011;23980;51.902;12.832;2022-08-19T01:44:00;23.77;;;13.05;;
38166;SDS011;23980;51.902;12.832;2022-08-19T01:49:04;24.15;;;15.07;;
38166;SDS011;23980;51.902;12.832;2022-08-19T01:54:11;18.25;;;15.65;;
38166;SDS011;23980;51.902;12.832;2022-08-19T01:59:15;18.07;;;12.30;;
38166;SDS011;23980;51.902;12.832;2022-08-19T02:04:24;15.65;;;12.88;;
38166;SDS011;23980;51.902;12.832;2022-08-19T02:09:27;18.30;;;13.00;;
38166;SDS011;23980;51.902;12.832;2022-08-19T02:14:27;16.33;;;14.13;;
38166;SDS011;23980;51.902;12.832;2022-08-19T02:19:28;19.05;;;15.18;;
38166;SDS011;23980;51.902;12.832;2022-08-19T02:24:29;15.30;;;13.70;;
38166;SDS011;23980;51.902;12.832;2022-08-19T02:29:29;17.73;;;14.43;;
38166;SDS011;23980;51.902;12.832;2022-08-19T02:34:30;19.38;;;15.93;;
38166;SDS011;23980;51.902;12.832;2022-08-19T02:39:30;19.42;;;17.05;;
38166;SDS011;23980;51.902;12.832;2022-08-19T02:44:31;18.85;;;15.13;;
38166;SDS011;23980;51.902;12.832;2022-08-19T02:49:32;18.58;;;16.58;;
38166;SDS011;23980;51.902;12.832;2022-08-19T02:54:32;24.73;;;16.40;;
38166;SDS011;23980;51.902;12.832;2022-08-19T02:59:33;17.52;;;15.50;;
38166;SDS011;23980;51.902;12.832;2022-08-19T03:04:34;17.40;;;14.85;;
38166;SDS011;23980;51.902;12.832;2022-08-19T03:09:43;19.40;;;15.43;;
38166;SDS011;23980;51.902;12.832;2022-08-19T03:19:52;14.25;;;12.57;;
38166;SDS011;23980;51.902;12.832;2022-08-19T03:24:52;17.33;;;13.73;;
38166;SDS011;23980;51.902;12.832;2022-08-19T03:29:53;11.50;;;10.13;;
38166;SDS011;23980;51.902;12.832;2022-08-19T03:34:54;13.00;;;10.13;;
38166;SDS011;23980;51.902;12.832;2022-08-19T03:39:55;11.88;;;9.73;;
38166;SDS011;23980;51.902;12.832;2022-08-19T03:44:56;12.32;;;10.32;;
38166;SDS011;23980;51.902;12.832;2022-08-19T03:50:00;12.10;;;10.80;;
38166;SDS011;23980;51.902;12.832;2022-08-19T03:55:01;15.27;;;11.10;;
38166;SDS011;23980;51.902;12.832;2022-08-19T04:00:03;14.52;;;11.13;;
38166;SDS011;23980;51.902;12.832;2022-08-19T04:05:07;14.43;;;10.57;;
38166;SDS011;23980;51.902;12.832;2022-08-19T04:10:08;16.52;;;11.38;;
38166;SDS011;23980;51.902;12.832;2022-08-19T04:15:16;14.98;;;11.48;;
38166;SDS011;23980;51.902;12.832;2022-08-19T04:20:17;15.57;;;13.00;;
38166;SDS011;23980;51.902;12.832;2022-08-19T04:25:18;14.77;;;13.10;;
38166;SDS011;23980;51.902;12.832;2022-08-19T04:30:18;16.75;;;12.52;;
38166;SDS011;23980;51.902;12.832;2022-08-19T04:35:19;17.23;;;14.40;;
38166;SDS011;23980;51.902;12.832;2022-08-19T04:40:19;21.08;;;19.10;;
38166;SDS011;23980;51.902;12.832;2022-08-19T04:45:39;21.33;;;17.65;;
38166;SDS011;23980;51.902;12.832;2022-08-19T04:50:40;20.83;;;18.70;;
38166;SDS011;23980;51.902;12.832;2022-08-19T04:55:42;20.42;;;18.30;;
38166;SDS011;23980;51.902;12.832;2022-08-19T05:00:43;19.67;;;17.73;;
38166;SDS011;23980;51.902;12.832;2022-08-19T05:05:54;22.02;;;19.83;;
38166;SDS011;23980;51.902;12.832;2022-08-19T05:10:54;22.50;;;20.27;;
38166;SDS011;23980;51.902;12.832;2022-08-19T05:15:58;23.73;;;20.98;;
38166;SDS011;23980;51.902;12.832;2022-08-19T05:21:04;23.50;;;21.05;;
38166;SDS011;23980;51.902;12.832;2022-08-19T05:26:25;19.35;;;17.45;;
38166;SDS011;23980;51.902;12.832;2022-08-19T05:31:27;19.42;;;16.50;;
38166;SDS011;23980;51.902;12.832;2022-08-19T05:36:28;19.40;;;17.42;;
38166;SDS011;23980;51.902;12.832;2022-08-19T05:41:40;18.98;;;17.05;;
38166;SDS011;23980;51.902;12.832;2022-08-19T05:46:43;19.92;;;17.90;;
38166;SDS011;23980;51.902;12.832;2022-08-19T05:51:48;14.93;;;13.43;;
38166;SDS011;23980;51.902;12.832;2022-08-19T05:56:49;12.73;;;11.43;;
38166;SDS011;23980;51.902;12.832;2022-08-19T06:01:53;15.20;;;12.05;;
38166;SDS011;23980;51.902;12.832;2022-08-19T06:06:56;15.60;;;13.63;;
38166;SDS011;23980;51.902;12.832;2022-08-19T06:11:58;13.90;;;12.02;;
38166;SDS011;23980;51.902;12.832;2022-08-19T06:17:00;15.90;;;13.25;;
38166;SDS011;23980;51.902;12.832;2022-08-19T06:22:02;15.38;;;13.77;;
38166;SDS011;23980;51.902;12.832;2022-08-19T06:27:04;14.93;;;13.27;;
38166;SDS011;23980;51.902;12.832;2022-08-19T06:32:07;15.95;;;14.25;;
38166;SDS011;23980;51.902;12.832;2022-08-19T06:37:08;16.83;;;13.60;;
38166;SDS011;23980;51.902;12.832;2022-08-19T06:42:09;14.70;;;13.13;;
38166;SDS011;23980;51.902;12.832;2022-08-19T06:47:14;10.40;;;9.25;;
38166;SDS011;23980;51.902;12.832;2022-08-19T06:52:18;12.98;;;11.48;;
38166;SDS011;23980;51.902;12.832;2022-08-19T06:57:19;12.25;;;10.93;;
38166;SDS011;23980;51.902;12.832;2022-08-19T07:02:20;13.90;;;12.20;;
38166;SDS011;23980;51.902;12.832;2022-08-19T07:07:21;14.88;;;13.32;;
38166;SDS011;23980;51.902;12.832;2022-08-19T07:12:22;18.25;;;16.23;;
38166;SDS011;23980;51.902;12.832;2022-08-19T07:17:24;19.58;;;17.52;;
38166;SDS011;23980;51.902;12.832;2022-08-19T07:22:25;20.00;;;17.90;;
38166;SDS011;23980;51.902;12.832;2022-08-19T07:27:27;20.40;;;17.35;;
38166;SDS011;23980;51.902;12.832;2022-08-19T07:32:27;21.02;;;18.00;;
38166;SDS011;23980;51.902;12.832;2022-08-19T07:37:30;25.23;;;18.17;;
38166;SDS011;23980;51.902;12.832;2022-08-19T07:42:32;25.45;;;19.98;;
38166;SDS011;23980;51.902;12.832;2022-08-19T07:47:33;23.10;;;20.75;;
38166;SDS011;23980;51.902;12.832;2022-08-19T07:52:33;23.67;;;21.25;;
38166;SDS011;23980;51.902;12.832;2022-08-19T07:57:35;22.10;;;19.65;;
38166;SDS011;23980;51.902;12.832;2022-08-19T08:02:36;23.35;;;20.65;;
38166;SDS011;23980;51.902;12.832;2022-08-19T08:07:39;22.10;;;18.83;;
38166;SDS011;23980;51.902;12.832;2022-08-19T08:13:03;23.77;;;20.15;;
38166;SDS011;23980;51.902;12.832;2022-08-19T08:18:11;24.45;;;21.95;;
38166;SDS011;23980;51.902;12.832;2022-08-19T08:23:12;29.15;;;24.05;;
38166;SDS011;23980;51.902;12.832;2022-08-19T08:28:32;25.67;;;22.48;;
38166;SDS011;23980;51.902;12.832;2022-08-19T08:33:32;28.25;;;25.17;;
38166;SDS011;23980;51.902;12.832;2022-08-19T08:38:38;29.67;;;25.50;;
38166;SDS011;23980;51.902;12.832;2022-08-19T08:43:40;28.05;;;25.05;;
38166;SDS011;23980;51.902;12.832;2022-08-19T08:54:17;29.40;;;26.27;;
38166;SDS011;23980;51.902;12.832;2022-08-19T09:04:21;33.85;;;27.23;;
38166;SDS011;23980;51.902;12.832;2022-08-19T09:19:51;34.90;;;29.17;;
38166;SDS011;23980;51.902;12.832;2022-08-19T09:24:55;33.25;;;29.10;;
38166;SDS011;23980;51.902;12.832;2022-08-19T09:29:56;31.67;;;27.48;;
38166;SDS011;23980;51.902;12.832;2022-08-19T09:34:56;28.83;;;25.73;;
38166;SDS011;23980;51.902;12.832;2022-08-19T09:39:58;29.25;;;25.05;;
38166;SDS011;23980;51.902;12.832;2022-08-19T09:44:59;28.02;;;25.00;;
38166;SDS011;23980;51.902;12.832;2022-08-19T09:50:00;27.92;;;21.83;;
38166;SDS011;23980;51.902;12.832;2022-08-19T09:55:01;27.88;;;22.83;;
38166;SDS011;23980;51.902;12.832;2022-08-19T10:00:03;25.88;;;19.83;;
38166;SDS011;23980;51.902;12.832;2022-08-19T10:05:09;28.02;;;21.23;;
38166;SDS011;23980;51.902;12.832;2022-08-19T10:10:28;22.98;;;19.90;;
38166;SDS011;23980;51.902;12.832;2022-08-19T10:15:30;26.92;;;20.77;;
38166;SDS011;23980;51.902;12.832;2022-08-19T10:20:31;22.27;;;19.85;;
38166;SDS011;23980;51.902;12.832;2022-08-19T10:25:32;25.17;;;19.65;;
38166;SDS011;23980;51.902;12.832;2022-08-19T10:30:37;21.85;;;19.45;;
38166;SDS011;23980;51.902;12.832;2022-08-19T10:35:48;21.85;;;18.75;;
38166;SDS011;23980;51.902;12.832;2022-08-19T10:40:49;22.65;;;19.88;;
38166;SDS011;23980;51.902;12.832;2022-08-19T10:45:53;26.52;;;21.17;;
38166;SDS011;23980;51.902;12.832;2022-08-19T10:50:57;26.55;;;21.13;;
38166;SDS011;23980;51.902;12.832;2022-08-19T10:56:16;26.88;;;21.17;;
38166;SDS011;23980;51.902;12.832;2022-08-19T11:01:41;27.20;;;20.45;;
38166;SDS011;23980;51.902;12.832;2022-08-19T11:06:50;27.48;;;21.75;;
38166;SDS011;23980;51.902;12.832;2022-08-19T11:11:51;25.98;;;21.48;;
38166;SDS011;23980;51.902;12.832;2022-08-19T11:16:52;27.83;;;22.92;;
38166;SDS011;23980;51.902;12.832;2022-08-19T11:22:00;25.17;;;21.65;;
38166;SDS011;23980;51.902;12.832;2022-08-19T11:27:03;24.70;;;21.02;;
38166;SDS011;23980;51.902;12.832;2022-08-19T11:32:15;27.75;;;22.08;;
38166;SDS011;23980;51.902;12.832;2022-08-19T11:37:16;30.50;;;22.85;;
38166;SDS011;23980;51.902;12.832;2022-08-19T11:42:20;31.48;;;23.55;;
38166;SDS011;23980;51.902;12.832;2022-08-19T11:47:39;34.78;;;26.33;;
38166;SDS011;23980;51.902;12.832;2022-08-19T11:52:49;31.30;;;22.42;;
38166;SDS011;23980;51.902;12.832;2022-08-19T12:02:50;27.38;;;22.77;;
38166;SDS011;23980;51.902;12.832;2022-08-19T12:07:51;27.92;;;23.05;;
38166;SDS011;23980;51.902;12.832;2022-08-19T12:12:51;21.48;;;19.17;;
38166;SDS011;23980;51.902;12.832;2022-08-19T12:17:52;24.65;;;19.55;;
38166;SDS011;23980;51.902;12.832;2022-08-19T12:23:03;19.98;;;13.45;;
38166;SDS011;23980;51.902;12.832;2022-08-19T12:28:04;29.33;;;16.65;;
38166;SDS011;23980;51.902;12.832;2022-08-19T12:33:06;16.55;;;11.70;;
38166;SDS011;23980;51.902;12.832;2022-08-19T12:38:07;17.45;;;14.18;;
38166;SDS011;23980;51.902;12.832;2022-08-19T12:43:09;13.88;;;10.85;;
38166;SDS011;23980;51.902;12.832;2022-08-19T12:48:12;12.75;;;8.52;;
38166;SDS011;23980;51.902;12.832;2022-08-19T12:53:14;21.20;;;14.40;;
38166;SDS011;23980;51.902;12.832;2022-08-19T12:58:14;18.42;;;15.02;;
38166;SDS011;23980;51.902;12.832;2022-08-19T13:03:15;19.48;;;17.50;;
38166;SDS011;23980;51.902;12.832;2022-08-19T13:08:16;22.60;;;19.23;;
38166;SDS011;23980;51.902;12.832;2022-08-19T13:13:17;20.48;;;18.27;;
38166;SDS011;23980;51.902;12.832;2022-08-19T13:18:17;20.08;;;17.70;;
38166;SDS011;23980;51.902;12.832;2022-08-19T13:23:18;19.80;;;15.75;;
38166;SDS011;23980;51.902;12.832;2022-08-19T13:28:18;21.85;;;18.00;;
38166;SDS011;23980;51.902;12.832;2022-08-19T13:33:19;22.50;;;20.27;;
38166;SDS011;23980;51.902;12.832;2022-08-19T13:38:21;19.75;;;17.65;;
38166;SDS011;23980;51.902;12.832;2022-08-19T13:43:22;21.88;;;19.55;;
38166;SDS011;23980;51.902;12.832;2022-08-19T13:48:26;23.63;;;19.88;;
38166;SDS011;23980;51.902;12.832;2022-08-19T13:53:26;25.98;;;23.02;;
38166;SDS011;23980;51.902;12.832;2022-08-19T13:58:31;24.42;;;20.58;;
38166;SDS011;23980;51.902;12.832;2022-08-19T14:03:32;26.23;;;22.85;;
38166;SDS011;23980;51.902;12.832;2022-08-19T14:13:39;23.52;;;20.85;;
38166;SDS011;23980;51.902;12.832;2022-08-19T14:18:40;23.98;;;21.55;;
38166;SDS011;23980;51.902;12.832;2022-08-19T14:23:41;24.65;;;21.70;;
38166;SDS011;23980;51.902;12.832;2022-08-19T14:28:42;25.95;;;20.25;;
38166;SDS011;23980;51.902;12.832;2022-08-19T14:33:44;22.90;;;18.88;;
38166;SDS011;23980;51.902;12.832;2022-08-19T14:38:46;20.58;;;18.38;;
38166;SDS011;23980;51.902;12.832;2022-08-19T14:43:48;21.17;;;18.40;;
38166;SDS011;23980;51.902;12.832;2022-08-19T14:48:51;19.67;;;15.57;;
38166;SDS011;23980;51.902;12.832;2022-08-19T14:53:58;19.48;;;15.13;;
38166;SDS011;23980;51.902;12.832;2022-08-19T14:58:59;17.35;;;15.43;;
38166;SDS011;23980;51.902;12.832;2022-08-19T15:04:00;21.33;;;15.90;;
38166;SDS011;23980;51.902;12.832;2022-08-19T15:09:02;16.92;;;15.05;;
38166;SDS011;23980;51.902;12.832;2022-08-19T15:14:03;15.57;;;13.82;;
38166;SDS011;23980;51.902;12.832;2022-08-19T15:19:06;16.38;;;13.95;;
38166;SDS011;23980;51.902;12.832;2022-08-19T15:24:07;14.02;;;12.30;;
38166;SDS011;23980;51.902;12.832;2022-08-19T15:29:09;13.70;;;12.30;;
38166;SDS011;23980;51.902;12.832;2022-08-19T15:34:12;15.48;;;12.40;;
38166;SDS011;23980;51.902;12.832;2022-08-19T15:39:13;18.35;;;15.90;;
38166;SDS011;23980;51.902;12.832;2022-08-19T15:44:15;18.88;;;16.25;;
38166;SDS011;23980;51.902;12.832;2022-08-19T15:49:17;18.95;;;16.75;;
38166;SDS011;23980;51.902;12.832;2022-08-19T15:54:27;20.60;;;17.85;;
38166;SDS011;23980;51.902;12.832;2022-08-19T15:59:27;25.25;;;18.90;;
38166;SDS011;23980;51.902;12.832;2022-08-19T16:04:46;22.17;;;18.13;;
38166;SDS011;23980;51.902;12.832;2022-08-19T16:10:06;22.55;;;18.88;;
38166;SDS011;23980;51.902;12.832;2022-08-19T16:15:07;24.33;;;18.50;;
38166;SDS011;23980;51.902;12.832;2022-08-19T16:20:09;22.67;;;20.08;;
38166;SDS011;23980;51.902;12.832;2022-08-19T16:25:11;26.48;;;18.88;;
38166;SDS011;23980;51.902;12.832;2022-08-19T16:30:12;28.50;;;19.63;;
38166;SDS011;23980;51.902;12.832;2022-08-19T16:35:17;26.27;;;20.90;;
38166;SDS011;23980;51.902;12.832;2022-08-19T16:40:18;24.73;;;19.50;;
38166;SDS011;23980;51.902;12.832;2022-08-19T16:45:18;26.00;;;19.65;;
38166;SDS011;23980;51.902;12.832;2022-08-19T16:50:20;32.30;;;20.90;;
38166;SDS011;23980;51.902;12.832;2022-08-19T16:55:35;25.33;;;20.95;;
38166;SDS011;23980;51.902;12.832;2022-08-19T17:00:36;25.75;;;21.30;;
38166;SDS011;23980;51.902;12.832;2022-08-19T17:05:41;26.45;;;19.95;;
38166;SDS011;23980;51.902;12.832;2022-08-19T17:10:42;25.23;;;20.77;;
38166;SDS011;23980;51.902;12.832;2022-08-19T17:20:49;28.58;;;22.35;;
38166;SDS011;23980;51.902;12.832;2022-08-19T17:25:51;33.95;;;28.42;;
38166;SDS011;23980;51.902;12.832;2022-08-19T17:30:52;31.60;;;23.70;;
38166;SDS011;23980;51.902;12.832;2022-08-19T17:35:53;34.88;;;26.58;;
38166;SDS011;23980;51.902;12.832;2022-08-19T17:40:55;30.88;;;25.52;;
38166;SDS011;23980;51.902;12.832;2022-08-19T17:46:03;31.58;;;27.50;;
38166;SDS011;23980;51.902;12.832;2022-08-19T17:51:17;31.88;;;26.10;;
38166;SDS011;23980;51.902;12.832;2022-08-19T17:56:21;30.02;;;25.52;;
38166;SDS011;23980;51.902;12.832;2022-08-19T18:01:22;27.85;;;23.50;;
38166;SDS011;23980;51.902;12.832;2022-08-19T18:06:24;30.80;;;25.30;;
38166;SDS011;23980;51.902;12.832;2022-08-19T18:11:27;33.22;;;26.65;;
38166;SDS011;23980;51.902;12.832;2022-08-19T18:21:52;29.60;;;26.23;;
38166;SDS011;23980;51.902;12.832;2022-08-19T18:31:58;36.65;;;26.50;;
38166;SDS011;23980;51.902;12.832;2022-08-19T18:42:03;33.65;;;28.67;;
38166;SDS011;23980;51.902;12.832;2022-08-19T18:47:23;35.47;;;29.20;;
38166;SDS011;23980;51.902;12.832;2022-08-19T18:52:46;33.40;;;28.80;;
38166;SDS011;23980;51.902;12.832;2022-08-19T18:57:47;33.72;;;27.05;;
38166;SDS011;23980;51.902;12.832;2022-08-19T19:02:55;35.22;;;27.52;;
38166;SDS011;23980;51.902;12.832;2022-08-19T19:07:56;36.92;;;28.25;;
38166;SDS011;23980;51.902;12.832;2022-08-19T19:12:58;36.67;;;30.23;;
38166;SDS011;23980;51.902;12.832;2022-08-19T19:18:01;33.88;;;28.55;;
38166;SDS011;23980;51.902;12.832;2022-08-19T19:23:01;37.53;;;29.48;;
38166;SDS011;23980;51.902;12.832;2022-08-19T19:28:02;38.83;;;31.83;;
38166;SDS011;23980;51.902;12.832;2022-08-19T19:33:03;42.92;;;29.73;;
38166;SDS011;23980;51.902;12.832;2022-08-19T19:38:08;40.72;;;29.98;;
38166;SDS011;23980;51.902;12.832;2022-08-19T19:43:14;39.42;;;29.60;;
38166;SDS011;23980;51.902;12.832;2022-08-19T19:48:16;39.20;;;28.98;;
38166;SDS011;23980;51.902;12.832;2022-08-19T19:53:28;36.53;;;28.33;;
38166;SDS011;23980;51.902;12.832;2022-08-19T19:58:29;33.70;;;24.33;;
38166;SDS011;23980;51.902;12.832;2022-08-19T20:03:34;39.85;;;25.75;;
38166;SDS011;23980;51.902;12.832;2022-08-19T20:08:35;28.45;;;21.90;;
38166;SDS011;23980;51.902;12.832;2022-08-19T20:13:54;39.75;;;29.00;;
38166;SDS011;23980;51.902;12.832;2022-08-19T20:18:56;36.28;;;26.98;;
38166;SDS011;23980;51.902;12.832;2022-08-19T20:23:59;33.47;;;24.70;;
38166;SDS011;23980;51.902;12.832;2022-08-19T20:29:02;35.53;;;28.23;;
38166;SDS011;23980;51.902;12.832;2022-08-19T20:34:02;38.63;;;27.55;;
38166;SDS011;23980;51.902;12.832;2022-08-19T20:39:03;33.20;;;23.13;;
38166;SDS011;23980;51.902;12.832;2022-08-19T20:44:04;31.83;;;25.05;;
38166;SDS011;23980;51.902;12.832;2022-08-19T20:49:12;36.75;;;26.35;;
38166;SDS011;23980;51.902;12.832;2022-08-19T20:54:13;37.78;;;29.75;;
38166;SDS011;23980;51.902;12.832;2022-08-19T20:59:13;33.85;;;27.77;;
38166;SDS011;23980;51.902;12.832;2022-08-19T21:04:14;33.38;;;27.02;;
38166;SDS011;23980;51.902;12.832;2022-08-19T21:14:19;34.22;;;25.10;;
38166;SDS011;23980;51.902;12.832;2022-08-19T21:19:19;35.30;;;28.77;;
38166;SDS011;23980;51.902;12.832;2022-08-19T21:24:20;33.70;;;27.30;;
38166;SDS011;23980;51.902;12.832;2022-08-19T21:29:21;30.75;;;24.83;;
38166;SDS011;23980;51.902;12.832;2022-08-19T21:34:22;35.25;;;26.30;;
38166;SDS011;23980;51.902;12.832;2022-08-19T21:39:22;35.50;;;27.80;;
38166;SDS011;23980;51.902;12.832;2022-08-19T21:44:23;27.90;;;17.98;;
38166;SDS011;23980;51.902;12.832;2022-08-19T21:49:24;31.50;;;21.95;;
38166;SDS011;23980;51.902;12.832;2022-08-19T21:54:25;28.35;;;22.02;;
38166;SDS011;23980;51.902;12.832;2022-08-19T21:59:26;51.10;;;41.45;;
38166;SDS011;23980;51.902;12.832;2022-08-19T22:04:27;52.70;;;42.80;;
38166;SDS011;23980;51.902;12.832;2022-08-19T22:09:27;52.63;;;47.00;;
38166;SDS011;23980;51.902;12.832;2022-08-19T22:14:28;55.85;;;46.20;;
38166;SDS011;23980;51.902;12.832;2022-08-19T22:19:29;23.75;;;15.93;;
38166;SDS011;23980;51.902;12.832;2022-08-19T22:24:29;28.60;;;18.08;;
38166;SDS011;23980;51.902;12.832;2022-08-19T22:29:30;37.13;;;17.67;;
38166;SDS011;23980;51.902;12.832;2022-08-19T22:34:32;28.20;;;17.77;;
38166;SDS011;23980;51.902;12.832;2022-08-19T22:39:32;30.13;;;22.33;;
38166;SDS011;23980;51.902;12.832;2022-08-19T22:44:33;24.63;;;19.20;;
38166;SDS011;23980;51.902;12.832;2022-08-19T22:49:34;33.42;;;22.42;;
38166;SDS011;23980;51.902;12.832;2022-08-19T22:54:35;22.83;;;17.95;;
38166;SDS011;23980;51.902;12.832;2022-08-19T22:59:35;31.63;;;21.40;;
38166;SDS011;23980;51.902;12.832;2022-08-19T23:04:36;31.40;;;22.23;;
38166;SDS011;23980;51.902;12.832;2022-08-19T23:09:38;32.92;;;20.42;;
38166;SDS011;23980;51.902;12.832;2022-08-19T23:14:39;34.75;;;21.30;;
38166;SDS011;23980;51.902;12.832;2022-08-19T23:19:41;38.83;;;25.42;;
38166;SDS011;23980;51.902;12.832;2022-08-19T23:24:42;28.58;;;21.00;;
38166;SDS011;23980;51.902;12.832;2022-08-19T23:29:43;32.20;;;20.20;;
38166;SDS011;23980;51.902;12.832;2022-08-19T23:35:02;33.70;;;21.20;;
38166;SDS011;23980;51.902;12.832;2022-08-19T23:40:03;33.22;;;19.90;;
38166;SDS011;23980;51.902;12.832;2022-08-19T23:45:06;29.77;;;18.05;;
38166;SDS011;23980;51.902;12.832;2022-08-19T23:50:08;23.30;;;13.32;;
38166;SDS011;23980;51.902;12.832;2022-08-19T23:55:10;43.17;;;36.67;;
